Time;durP1;ratioP1;P1;durP2;ratioP2;P2;SDS_P1;SDS_P2;PMS_P1;PMS_P2;Temp;Humidity;BMP_temperature;BMP_pressure;BME280_temperature;BME280_humidity;BME280_pressure;Samples;Min_cycle;Max_cycle;Signal;HPM_P1;HPM_P2
2021/12/15 00:01:39;;;;;;;32.22;14.48;;;;;;;;;;5062922;28;20128;-58
2021/12/15 00:04:06;;;;;;;33.97;14.30;;;;;;;;;;5043525;28;20057;-56
2021/12/15 00:06:33;;;;;;;34.60;15.13;;;;;;;;;;5048210;28;20120;-57
2021/12/15 00:09:00;;;;;;;35.13;14.50;;;;;;;;;;5059275;28;20417;-58
2021/12/15 00:11:33;;;;;;;34.10;13.93;;;;;;;;;;5047385;28;20055;-57
2021/12/15 00:14:00;;;;;;;43.33;16.38;;;;;;;;;;5044042;28;20152;-58
2021/12/15 00:16:28;;;;;;;38.47;14.52;;;;;;;;;;5063428;28;21006;-58
2021/12/15 00:18:54;;;;;;;40.30;15.25;;;;;;;;;;5044354;28;20092;-57
2021/12/15 00:21:21;;;;;;;34.20;14.68;;;;;;;;;;5048315;28;20125;-57
2021/12/15 00:23:48;;;;;;;31.88;13.68;;;;;;;;;;5043877;28;20061;-57
2021/12/15 00:26:15;;;;;;;32.55;13.95;;;;;;;;;;5048554;28;20059;-57
2021/12/15 00:28:49;;;;;;;39.88;14.95;;;;;;;;;;5045772;28;20061;-57
2021/12/15 00:31:16;;;;;;;35.22;14.43;;;;;;;;;;5054617;28;20049;-57
2021/12/15 00:33:44;;;;;;;36.45;14.93;;;;;;;;;;5032774;28;20144;-57
2021/12/15 00:36:11;;;;;;;41.60;15.82;;;;;;;;;;5047399;28;20441;-57
2021/12/15 00:38:38;;;;;;;35.60;14.40;;;;;;;;;;5044690;28;20049;-57
2021/12/15 00:41:05;;;;;;;46.22;16.63;;;;;;;;;;5061721;28;20129;-57
2021/12/15 00:43:32;;;;;;;31.80;14.13;;;;;;;;;;5043012;28;20049;-57
2021/12/15 00:45:59;;;;;;;37.55;15.05;;;;;;;;;;5047349;28;20049;-58
2021/12/15 00:48:26;;;;;;;35.75;13.82;;;;;;;;;;5047359;28;20045;-57
2021/12/15 00:50:54;;;;;;;34.05;14.90;;;;;;;;;;5042007;28;20098;-59
2021/12/15 00:53:28;;;;;;;41.15;16.05;;;;;;;;;;5046435;28;20049;-58
2021/12/15 00:55:54;;;;;;;33.97;13.48;;;;;;;;;;5043786;28;20073;-57
2021/12/15 00:58:21;;;;;;;39.63;15.57;;;;;;;;;;5063094;28;20476;-57
2021/12/15 01:00:49;;;;;;;37.33;15.35;;;;;;;;;;5043926;28;20544;-57
2021/12/15 01:03:15;;;;;;;40.05;16.02;;;;;;;;;;5046847;28;20110;-57
2021/12/15 01:05:44;;;;;;;35.05;14.93;;;;;;;;;;5041552;28;20057;-57
2021/12/15 01:08:13;;;;;;;48.25;17.85;;;;;;;;;;5078789;28;20311;-57
2021/12/15 01:10:55;;;;;;;33.55;14.05;;;;;;;;;;5057696;28;20061;-57
2021/12/15 01:21:37;;;;;;;30.35;13.07;;;;;;;;;;5059229;28;20084;-56
2021/12/15 01:24:06;;;;;;;42.95;17.83;;;;;;;;;;5046295;28;20156;-57
2021/12/15 01:26:33;;;;;;;36.15;14.32;;;;;;;;;;5042259;28;20126;-55
2021/12/15 01:28:59;;;;;;;36.72;15.13;;;;;;;;;;5045494;28;20053;-57
2021/12/15 01:31:26;;;;;;;39.05;16.45;;;;;;;;;;5042495;28;20052;-55
2021/12/15 01:33:53;;;;;;;37.95;16.40;;;;;;;;;;5046234;28;20367;-57
2021/12/15 01:36:19;;;;;;;32.40;14.55;;;;;;;;;;5043017;28;20148;-56
2021/12/15 01:38:47;;;;;;;32.83;14.07;;;;;;;;;;5077310;28;20136;-57
2021/12/15 01:41:22;;;;;;;35.05;15.07;;;;;;;;;;5042613;28;20053;-57
2021/12/15 01:46:52;;;;;;;39.90;15.20;;;;;;;;;;5043483;28;20077;-56
2021/12/15 01:46:55;;;;;;;38.30;15.63;;;;;;;;;;5075401;28;20056;-57
2021/12/15 01:49:23;;;;;;;34.65;13.90;;;;;;;;;;5047661;28;20608;-57
2021/12/15 01:51:49;;;;;;;30.73;13.43;;;;;;;;;;5043965;28;20061;-56
2021/12/15 01:54:20;;;;;;;35.92;14.45;;;;;;;;;;5047431;28;20084;-57
2021/12/15 01:56:55;;;;;;;33.80;13.90;;;;;;;;;;5043620;28;20053;-57
2021/12/15 01:59:23;;;;;;;37.00;16.15;;;;;;;;;;5046496;28;20107;-57
2021/12/15 02:02:00;;;;;;;30.02;13.18;;;;;;;;;;5042229;28;20103;-56
2021/12/15 02:04:29;;;;;;;39.17;15.57;;;;;;;;;;5045304;28;20085;-56
2021/12/15 02:06:57;;;;;;;31.83;14.30;;;;;;;;;;5041083;28;20520;-57
2021/12/15 02:09:41;;;;;;;37.08;16.17;;;;;;;;;;5044098;28;20071;-57
2021/12/15 02:12:11;;;;;;;30.42;13.55;;;;;;;;;;5057526;28;20163;-55
2021/12/15 02:14:38;;;;;;;37.58;16.63;;;;;;;;;;5077198;28;20056;-57
2021/12/15 02:17:05;;;;;;;42.20;17.00;;;;;;;;;;5043076;28;20044;-57
2021/12/15 02:19:34;;;;;;;37.10;15.80;;;;;;;;;;5044677;28;20320;-57
2021/12/15 02:22:02;;;;;;;37.83;15.00;;;;;;;;;;5045633;28;20080;-56
2021/12/15 02:24:32;;;;;;;40.53;16.42;;;;;;;;;;5040487;28;20059;-56
2021/12/15 02:27:00;;;;;;;34.03;14.55;;;;;;;;;;5045119;28;20056;-57
2021/12/15 02:29:31;;;;;;;41.63;17.05;;;;;;;;;;5041174;28;20063;-57
2021/12/15 02:32:07;;;;;;;44.20;16.85;;;;;;;;;;5059531;28;20080;-57
2021/12/15 02:34:57;;;;;;;44.42;16.42;;;;;;;;;;5037612;28;20068;-57
2021/12/15 02:37:24;;;;;;;37.75;16.52;;;;;;;;;;5044247;28;20057;-58
2021/12/15 02:39:54;;;;;;;36.63;15.35;;;;;;;;;;5040927;28;20052;-58
2021/12/15 02:42:21;;;;;;;29.42;13.15;;;;;;;;;;5059636;28;20312;-57
2021/12/15 02:44:49;;;;;;;36.00;13.65;;;;;;;;;;5056275;28;20589;-57
2021/12/15 02:47:17;;;;;;;41.20;16.40;;;;;;;;;;5045702;28;20084;-58
2021/12/15 02:49:43;;;;;;;45.83;17.35;;;;;;;;;;5041692;28;20195;-57
2021/12/15 02:52:10;;;;;;;43.78;17.27;;;;;;;;;;5045716;28;20106;-57
2021/12/15 02:54:38;;;;;;;37.95;15.05;;;;;;;;;;5055121;28;20056;-57
2021/12/15 02:57:10;;;;;;;40.33;16.08;;;;;;;;;;5044940;28;20100;-57
2021/12/15 02:59:45;;;;;;;45.28;17.75;;;;;;;;;;5041509;28;20076;-58
2021/12/15 03:02:26;;;;;;;42.15;15.90;;;;;;;;;;5044820;28;20137;-57
2021/12/15 03:05:05;;;;;;;44.10;16.10;;;;;;;;;;5041515;28;20052;-56
2021/12/15 03:07:38;;;;;;;45.58;17.63;;;;;;;;;;5045714;28;20048;-57
2021/12/15 03:15:36;;;;;;;34.95;14.23;;;;;;;;;;5042489;28;20044;-57
2021/12/15 03:18:06;;;;;;;48.72;18.17;;;;;;;;;;5045044;28;20063;-56
2021/12/15 03:20:35;;;;;;;46.30;16.42;;;;;;;;;;5043290;28;20079;-57
2021/12/15 03:23:02;;;;;;;46.60;17.95;;;;;;;;;;5047805;28;20049;-57
2021/12/15 03:25:31;;;;;;;38.90;16.08;;;;;;;;;;5042780;28;20053;-57
2021/12/15 03:33:56;;;;;;;40.22;15.65;;;;;;;;;;4988229;28;20123;-57
2021/12/15 03:36:36;;;;;;;39.33;15.95;;;;;;;;;;5021159;28;20110;-57
2021/12/15 03:39:04;;;;;;;32.53;13.73;;;;;;;;;;5045126;28;20053;-57
2021/12/15 03:41:32;;;;;;;46.38;16.25;;;;;;;;;;5041872;28;20126;-57
2021/12/15 03:43:58;;;;;;;36.67;15.00;;;;;;;;;;5044568;28;20506;-57
2021/12/15 03:46:25;;;;;;;36.58;15.38;;;;;;;;;;5043528;28;20313;-57
2021/12/15 03:48:51;;;;;;;43.40;18.23;;;;;;;;;;5048820;28;20057;-57
2021/12/15 03:51:18;;;;;;;41.38;16.23;;;;;;;;;;5045366;28;20147;-57
2021/12/15 03:53:48;;;;;;;43.85;17.25;;;;;;;;;;5048620;28;20395;-57
2021/12/15 03:56:15;;;;;;;39.95;15.65;;;;;;;;;;5045522;28;20048;-57
2021/12/15 03:58:43;;;;;;;42.72;16.63;;;;;;;;;;5049260;28;20123;-57
2021/12/15 04:01:11;;;;;;;43.78;15.25;;;;;;;;;;5045688;28;20049;-57
2021/12/15 04:03:40;;;;;;;40.65;16.80;;;;;;;;;;5028807;28;20141;-57
2021/12/15 04:06:08;;;;;;;40.67;15.65;;;;;;;;;;5029265;28;20049;-57
2021/12/15 04:08:35;;;;;;;41.97;16.67;;;;;;;;;;5044690;28;20478;-57
2021/12/15 04:11:04;;;;;;;35.63;14.70;;;;;;;;;;5048230;28;20323;-57
2021/12/15 04:13:30;;;;;;;46.70;17.13;;;;;;;;;;5045139;28;20069;-56
2021/12/15 04:16:05;;;;;;;43.67;16.27;;;;;;;;;;5049460;28;20073;-57
2021/12/15 04:18:32;;;;;;;43.03;16.95;;;;;;;;;;5029302;28;20080;-56
2021/12/15 04:20:58;;;;;;;45.60;17.25;;;;;;;;;;5028154;28;20143;-57
2021/12/15 04:23:26;;;;;;;37.90;15.95;;;;;;;;;;5037079;28;20063;-56
2021/12/15 04:25:54;;;;;;;39.97;15.38;;;;;;;;;;5048527;28;20052;-57
2021/12/15 04:28:22;;;;;;;38.13;15.40;;;;;;;;;;5044646;28;20172;-57
2021/12/15 04:30:51;;;;;;;50.15;17.50;;;;;;;;;;5048694;28;20060;-57
2021/12/15 04:33:23;;;;;;;42.72;16.30;;;;;;;;;;5044638;28;20132;-56
2021/12/15 04:35:52;;;;;;;33.70;14.25;;;;;;;;;;5048330;28;20053;-55
2021/12/15 04:38:18;;;;;;;37.03;15.05;;;;;;;;;;5046366;28;20063;-57
2021/12/15 04:40:45;;;;;;;43.78;16.63;;;;;;;;;;5047599;28;20057;-57
2021/12/15 04:43:12;;;;;;;35.38;14.85;;;;;;;;;;5044472;28;20045;-56
2021/12/15 04:45:39;;;;;;;34.47;13.95;;;;;;;;;;5048809;28;20045;-54
2021/12/15 04:48:06;;;;;;;36.80;14.98;;;;;;;;;;5046212;28;20140;-57
2021/12/15 04:50:34;;;;;;;34.35;13.48;;;;;;;;;;5049795;28;20080;-56
2021/12/15 04:53:03;;;;;;;35.58;14.82;;;;;;;;;;5048618;28;20059;-56
2021/12/15 04:55:29;;;;;;;31.52;13.40;;;;;;;;;;5053480;28;20112;-54
2021/12/15 04:57:56;;;;;;;42.90;16.35;;;;;;;;;;5047439;28;20130;-57
2021/12/15 05:00:26;;;;;;;41.95;16.65;;;;;;;;;;5042334;28;20143;-57
2021/12/15 05:02:53;;;;;;;33.85;14.80;;;;;;;;;;5064194;28;20094;-57
2021/12/15 05:05:20;;;;;;;37.25;15.77;;;;;;;;;;5044218;28;20049;-57
2021/12/15 05:07:49;;;;;;;44.72;16.23;;;;;;;;;;5046960;28;20044;-58
2021/12/15 05:10:18;;;;;;;37.05;15.27;;;;;;;;;;5043491;28;20132;-57
2021/12/15 05:12:45;;;;;;;45.30;17.02;;;;;;;;;;5047398;28;20052;-57
2021/12/15 05:15:12;;;;;;;38.55;15.50;;;;;;;;;;5043475;28;20068;-56
2021/12/15 05:17:39;;;;;;;44.10;17.13;;;;;;;;;;5031020;28;20053;-56
2021/12/15 05:20:07;;;;;;;39.15;15.10;;;;;;;;;;5042206;28;20048;-56
2021/12/15 05:22:34;;;;;;;;;;;;;;;;;;5047586;28;20132;-57
2021/12/15 05:25:01;;;;;;;35.22;13.02;;;;;;;;;;5076538;28;19935;-57
2021/12/15 05:27:28;;;;;;;34.88;15.15;;;;;;;;;;5063644;28;20064;-57
2021/12/15 05:29:57;;;;;;;40.55;14.15;;;;;;;;;;5059038;28;20048;-57
2021/12/15 05:32:23;;;;;;;36.92;14.88;;;;;;;;;;5047455;28;20130;-57
2021/12/15 05:34:52;;;;;;;37.55;15.68;;;;;;;;;;5044881;28;20049;-57
2021/12/15 05:37:21;;;;;;;35.80;14.75;;;;;;;;;;5027329;28;20363;-56
2021/12/15 05:39:48;;;;;;;35.25;13.88;;;;;;;;;;5043468;28;20064;-57
2021/12/15 05:42:17;;;;;;;43.88;15.50;;;;;;;;;;5059171;28;20476;-56
2021/12/15 05:44:46;;;;;;;43.85;16.73;;;;;;;;;;5047481;28;20053;-56
2021/12/15 05:47:12;;;;;;;;;;;;;;;;;;5044228;28;20080;-57
2021/12/15 05:49:39;;;;;;;40.20;14.93;;;;;;;;;;5080268;28;19924;-57
2021/12/15 05:52:06;;;;;;;31.02;13.05;;;;;;;;;;5042872;28;20084;-57
2021/12/15 05:54:33;;;;;;;32.88;13.93;;;;;;;;;;5046584;28;20048;-57
2021/12/15 05:57:00;;;;;;;47.63;18.42;;;;;;;;;;5038395;28;20073;-57
2021/12/15 05:59:28;;;;;;;38.58;15.23;;;;;;;;;;5045261;28;20056;-56
2021/12/15 06:01:54;;;;;;;38.95;15.43;;;;;;;;;;5042679;28;20158;-58
2021/12/15 06:04:21;;;;;;;33.28;13.70;;;;;;;;;;5045025;28;20144;-57
2021/12/15 06:06:48;;;;;;;34.78;14.50;;;;;;;;;;5041781;28;20546;-58
2021/12/15 06:09:14;;;;;;;37.15;14.63;;;;;;;;;;5045188;28;20078;-57
2021/12/15 06:11:42;;;;;;;35.17;15.07;;;;;;;;;;5040312;28;20083;-57
2021/12/15 06:14:09;;;;;;;36.50;14.52;;;;;;;;;;5044863;28;20060;-57
2021/12/15 06:16:38;;;;;;;31.85;12.43;;;;;;;;;;5042895;28;20049;-57
2021/12/15 06:19:05;;;;;;;33.05;12.23;;;;;;;;;;5045552;28;20472;-57
2021/12/15 06:21:32;;;;;;;41.53;17.13;;;;;;;;;;5045578;28;20056;-57
2021/12/15 06:24:00;;;;;;;35.25;13.82;;;;;;;;;;5059091;28;20045;-56
2021/12/15 06:26:26;;;;;;;40.60;14.98;;;;;;;;;;5047102;28;20052;-57
2021/12/15 06:28:53;;;;;;;43.67;18.58;;;;;;;;;;5042085;28;20052;-57
2021/12/15 06:31:19;;;;;;;52.60;20.13;;;;;;;;;;5043624;28;20664;-57
2021/12/15 06:33:48;;;;;;;37.40;15.57;;;;;;;;;;5040791;28;20049;-58
2021/12/15 06:36:20;;;;;;;40.55;15.20;;;;;;;;;;5043137;28;20053;-57
2021/12/15 06:38:47;;;;;;;38.20;15.25;;;;;;;;;;5040886;28;20139;-57
2021/12/15 06:41:14;;;;;;;46.67;16.10;;;;;;;;;;5044653;28;20480;-57
2021/12/15 06:43:43;;;;;;;34.40;13.98;;;;;;;;;;5039924;28;20084;-57
2021/12/15 06:46:28;;;;;;;38.28;15.20;;;;;;;;;;5044585;28;20176;-57
2021/12/15 06:57:33;;;;;;;36.83;14.18;;;;;;;;;;5045677;28;20099;-58
2021/12/15 07:00:00;;;;;;;38.83;15.95;;;;;;;;;;5040793;28;20045;-56
2021/12/15 07:02:27;;;;;;;37.38;14.38;;;;;;;;;;5044666;28;20056;-56
2021/12/15 07:04:56;;;;;;;45.95;16.88;;;;;;;;;;5041566;28;20104;-56
2021/12/15 07:07:22;;;;;;;43.65;15.40;;;;;;;;;;5045938;28;20453;-57
2021/12/15 07:09:49;;;;;;;38.25;14.82;;;;;;;;;;5041969;28;20045;-56
2021/12/15 07:12:16;;;;;;;40.28;14.15;;;;;;;;;;5046336;28;20517;-57
2021/12/15 07:14:43;;;;;;;49.95;17.23;;;;;;;;;;5042811;28;20098;-56
2021/12/15 07:17:18;;;;;;;30.13;12.95;;;;;;;;;;5045664;28;20142;-57
2021/12/15 07:20:05;;;;;;;37.38;14.60;;;;;;;;;;5041184;28;20053;-57
2021/12/15 07:22:43;;;;;;;46.53;16.23;;;;;;;;;;5049636;28;20063;-58
2021/12/15 07:25:11;;;;;;;34.70;13.60;;;;;;;;;;5045752;28;20057;-58
2021/12/15 07:27:37;;;;;;;53.13;17.35;;;;;;;;;;5049399;28;20349;-57
2021/12/15 07:30:05;;;;;;;37.05;14.60;;;;;;;;;;5045427;28;20052;-57
2021/12/15 07:32:32;;;;;;;41.25;14.77;;;;;;;;;;5049478;28;20065;-57
2021/12/15 07:34:58;;;;;;;46.65;16.55;;;;;;;;;;5045920;28;20259;-57
2021/12/15 07:37:25;;;;;;;52.22;15.68;;;;;;;;;;5049457;28;20143;-57
2021/12/15 07:39:58;;;;;;;48.67;16.45;;;;;;;;;;5045792;28;20057;-57
2021/12/15 07:42:32;;;;;;;41.97;15.95;;;;;;;;;;5049444;28;20068;-56
2021/12/15 07:44:59;;;;;;;36.92;14.10;;;;;;;;;;5046752;28;20053;-57
2021/12/15 07:47:26;;;;;;;41.75;15.00;;;;;;;;;;5050353;28;20080;-57
2021/12/15 07:49:52;;;;;;;40.95;15.25;;;;;;;;;;5048981;28;20057;-57
2021/12/15 07:52:19;;;;;;;50.15;16.98;;;;;;;;;;5044680;28;20164;-57
2021/12/15 07:54:46;;;;;;;51.10;17.13;;;;;;;;;;5048535;28;20414;-57
2021/12/15 07:57:17;;;;;;;44.80;15.15;;;;;;;;;;5044470;28;20489;-57
2021/12/15 07:59:43;;;;;;;46.08;15.48;;;;;;;;;;5048684;28;20079;-57
2021/12/15 08:02:10;;;;;;;45.20;15.57;;;;;;;;;;5044796;28;20063;-57
2021/12/15 08:04:36;;;;;;;50.45;16.35;;;;;;;;;;5048683;28;20085;-57
2021/12/15 08:07:03;;;;;;;47.67;15.52;;;;;;;;;;5042502;28;20226;-57
2021/12/15 08:09:30;;;;;;;43.40;14.30;;;;;;;;;;5048039;28;20073;-57
2021/12/15 08:11:56;;;;;;;43.75;15.45;;;;;;;;;;5044418;28;20080;-57
2021/12/15 08:14:25;;;;;;;43.92;14.68;;;;;;;;;;5048588;28;20056;-57
2021/12/15 08:16:51;;;;;;;46.38;14.52;;;;;;;;;;5046215;28;20152;-56
2021/12/15 08:19:19;;;;;;;49.20;16.15;;;;;;;;;;5047983;28;20053;-58
2021/12/15 08:21:46;;;;;;;47.45;16.33;;;;;;;;;;5043817;28;20107;-59
2021/12/15 08:24:13;;;;;;;34.90;13.35;;;;;;;;;;5047451;28;20554;-57
2021/12/15 08:26:39;;;;;;;51.38;17.90;;;;;;;;;;5044474;28;20081;-56
2021/12/15 08:29:06;;;;;;;53.42;16.55;;;;;;;;;;5047450;28;20131;-57
2021/12/15 08:31:34;;;;;;;35.75;13.25;;;;;;;;;;5047166;28;20513;-58
2021/12/15 08:34:01;;;;;;;63.05;19.58;;;;;;;;;;5062104;28;20457;-57
2021/12/15 08:36:28;;;;;;;48.35;17.73;;;;;;;;;;5048555;28;20057;-58
2021/12/15 08:38:54;;;;;;;58.10;18.35;;;;;;;;;;5044648;28;20045;-55
2021/12/15 08:41:22;;;;;;;54.22;18.17;;;;;;;;;;5048366;28;20057;-57
2021/12/15 08:43:49;;;;;;;40.43;15.33;;;;;;;;;;5042815;28;20060;-55
2021/12/15 08:46:16;;;;;;;57.97;18.85;;;;;;;;;;5048193;28;20088;-57
2021/12/15 08:48:46;;;;;;;56.10;18.58;;;;;;;;;;5044069;28;20052;-57
2021/12/15 08:51:14;;;;;;;57.72;18.40;;;;;;;;;;5047864;28;20143;-57
2021/12/15 08:53:42;;;;;;;51.40;17.40;;;;;;;;;;5043338;28;20132;-57
2021/12/15 08:56:09;;;;;;;44.20;15.30;;;;;;;;;;5047228;28;20053;-57
2021/12/15 08:58:35;;;;;;;46.15;15.93;;;;;;;;;;5043117;28;20057;-57
2021/12/15 09:01:02;;;;;;;49.42;16.15;;;;;;;;;;5046674;28;20045;-57
2021/12/15 09:03:29;;;;;;;54.90;17.65;;;;;;;;;;5032585;28;20513;-57
2021/12/15 09:05:58;;;;;;;50.65;17.75;;;;;;;;;;5046966;28;20072;-57
2021/12/15 09:08:25;;;;;;;58.00;18.35;;;;;;;;;;5042179;28;20130;-57
2021/12/15 09:10:54;;;;;;;54.50;16.35;;;;;;;;;;5047035;28;20080;-58
2021/12/15 09:13:24;;;;;;;57.60;17.20;;;;;;;;;;5044295;28;20076;-58
2021/12/15 09:15:50;;;;;;;52.05;16.75;;;;;;;;;;5048551;28;20529;-57
2021/12/15 09:18:17;;;;;;;45.53;16.15;;;;;;;;;;5044675;28;20128;-58
2021/12/15 09:20:44;;;;;;;42.10;14.30;;;;;;;;;;5042617;28;20128;-56
2021/12/15 09:23:15;;;;;;;53.60;16.25;;;;;;;;;;5047625;28;20060;-57
2021/12/15 09:25:41;;;;;;;61.30;18.00;;;;;;;;;;5043153;28;20033;-57
2021/12/15 09:28:08;;;;;;;51.33;16.73;;;;;;;;;;5047074;28;20146;-58
2021/12/15 09:30:37;;;;;;;55.70;19.48;;;;;;;;;;5043034;28;20053;-57
2021/12/15 09:33:04;;;;;;;55.20;17.60;;;;;;;;;;5046464;28;20079;-57
2021/12/15 09:35:31;;;;;;;55.03;17.50;;;;;;;;;;5044517;28;20064;-57
2021/12/15 09:37:57;;;;;;;55.22;16.92;;;;;;;;;;5046501;28;20147;-57
2021/12/15 09:40:26;;;;;;;44.67;16.75;;;;;;;;;;5042273;28;20061;-57
2021/12/15 09:42:52;;;;;;;46.97;15.73;;;;;;;;;;5045808;28;20071;-58
2021/12/15 09:45:27;;;;;;;50.60;17.48;;;;;;;;;;5041930;28;20107;-57
2021/12/15 09:56:49;;;;;;;46.92;16.42;;;;;;;;;;5042512;28;20077;-57
2021/12/15 10:02:09;;;;;;;45.60;15.13;;;;;;;;;;5041561;28;20055;-57
2021/12/15 10:04:44;;;;;;;44.47;16.48;;;;;;;;;;5047066;28;20073;-57
2021/12/15 10:07:20;;;;;;;42.33;15.43;;;;;;;;;;5040215;28;20055;-56
2021/12/15 10:18:24;;;;;;;45.65;16.08;;;;;;;;;;5059975;28;20063;-57
2021/12/15 10:20:52;;;;;;;44.80;16.33;;;;;;;;;;5044792;28;20174;-57
2021/12/15 10:23:23;;;;;;;50.22;15.38;;;;;;;;;;5044011;28;20109;-58
2021/12/15 10:25:53;;;;;;;43.45;16.73;;;;;;;;;;5044955;28;20056;-57
2021/12/15 10:28:22;;;;;;;44.72;15.85;;;;;;;;;;5024104;28;20088;-56
2021/12/15 10:30:51;;;;;;;45.13;15.43;;;;;;;;;;5026296;28;20042;-58
2021/12/15 10:33:20;;;;;;;46.83;17.17;;;;;;;;;;5038931;28;20132;-57
2021/12/15 10:35:48;;;;;;;48.75;18.20;;;;;;;;;;5046384;28;20047;-57
2021/12/15 10:38:20;;;;;;;48.93;18.13;;;;;;;;;;5042430;28;20168;-57
2021/12/15 10:40:48;;;;;;;44.22;16.90;;;;;;;;;;5047249;28;20802;-57
2021/12/15 10:43:16;;;;;;;43.83;15.80;;;;;;;;;;5042779;28;20053;-57
2021/12/15 10:45:46;;;;;;;44.95;17.20;;;;;;;;;;5046072;28;20182;-55
2021/12/15 10:48:24;;;;;;;41.00;16.00;;;;;;;;;;5041686;28;20102;-57
2021/12/15 10:50:50;;;;;;;42.08;16.88;;;;;;;;;;5043331;28;20057;-58
2021/12/15 10:53:29;;;;;;;44.25;16.70;;;;;;;;;;5032128;28;20593;-58
2021/12/15 10:55:58;;;;;;;48.60;19.00;;;;;;;;;;5045525;28;20073;-57
2021/12/15 10:58:32;;;;;;;44.55;14.57;;;;;;;;;;5041512;28;20053;-57
2021/12/15 11:00:59;;;;;;;41.55;15.85;;;;;;;;;;5045461;28;20080;-57
2021/12/15 11:03:32;;;;;;;40.70;16.30;;;;;;;;;;5041285;28;20052;-58
2021/12/15 11:05:58;;;;;;;41.72;16.63;;;;;;;;;;5045655;28;20059;-58
2021/12/15 11:08:25;;;;;;;44.67;16.90;;;;;;;;;;5041548;28;20132;-57
2021/12/15 11:10:54;;;;;;;42.55;16.65;;;;;;;;;;5036378;28;20144;-57
2021/12/15 11:13:22;;;;;;;;;;;;;;;;;;5041837;28;20053;-58
2021/12/15 11:15:51;;;;;;;40.85;14.55;;;;;;;;;;5062251;28;19929;-58
2021/12/15 11:18:20;;;;;;;37.90;13.95;;;;;;;;;;5041636;28;20053;-58
2021/12/15 11:20:46;;;;;;;;;;;;;;;;;;5045768;28;20049;-57
2021/12/15 11:23:14;;;;;;;39.38;14.85;;;;;;;;;;5078393;28;19925;-57
2021/12/15 11:25:43;;;;;;;43.83;17.83;;;;;;;;;;5040126;28;20049;-57
2021/12/15 11:28:12;;;;;;;38.55;14.60;;;;;;;;;;5045183;28;20112;-58
2021/12/15 11:30:40;;;;;;;38.83;15.20;;;;;;;;;;5042918;28;20080;-58
2021/12/15 11:33:09;;;;;;;39.50;14.30;;;;;;;;;;5044647;28;20166;-57
2021/12/15 11:35:39;;;;;;;37.15;15.57;;;;;;;;;;5041550;28;20460;-57
2021/12/15 11:38:08;;;;;;;34.10;14.38;;;;;;;;;;5046549;28;20045;-57
2021/12/15 11:40:37;;;;;;;42.40;16.40;;;;;;;;;;5041395;28;20119;-57
2021/12/15 11:43:05;;;;;;;;;;;;;;;;;;5045106;28;20057;-57
2021/12/15 11:45:31;;;;;;;31.38;11.95;;;;;;;;;;5041166;28;19924;-57
2021/12/15 11:48:12;;;;;;;39.45;14.75;;;;;;;;;;5045465;28;20503;-57
2021/12/15 11:50:40;;;;;;;32.97;14.90;;;;;;;;;;5040154;28;20111;-57
2021/12/15 11:53:12;;;;;;;35.92;14.88;;;;;;;;;;5044868;28;20070;-57
2021/12/15 11:55:39;;;;;;;39.97;14.90;;;;;;;;;;5042430;28;20517;-57
2021/12/15 11:58:09;;;;;;;41.25;15.90;;;;;;;;;;5046603;28;20477;-57
2021/12/15 12:00:36;;;;;;;34.20;15.73;;;;;;;;;;5042283;28;20147;-57
2021/12/15 12:03:02;;;;;;;41.55;15.57;;;;;;;;;;5045475;28;20564;-57
2021/12/15 12:05:30;;;;;;;31.17;14.02;;;;;;;;;;5042389;28;20076;-57
2021/12/15 12:07:59;;;;;;;37.90;15.37;;;;;;;;;;5048794;28;20049;-57
2021/12/15 12:10:29;;;;;;;42.13;15.43;;;;;;;;;;5046576;28;22957;-58
2021/12/15 12:13:04;;;;;;;29.85;13.05;;;;;;;;;;5049115;28;20453;-57
2021/12/15 12:15:31;;;;;;;36.58;15.10;;;;;;;;;;5044497;28;20060;-57
2021/12/15 12:18:00;;;;;;;35.70;13.70;;;;;;;;;;5048236;28;20056;-57
2021/12/15 12:20:27;;;;;;;29.33;12.55;;;;;;;;;;5048296;28;20144;-57
2021/12/15 12:22:55;;;;;;;32.28;13.52;;;;;;;;;;5044744;28;20069;-57
2021/12/15 12:25:25;;;;;;;40.73;14.37;;;;;;;;;;5048402;28;20145;-57
2021/12/15 12:27:52;;;;;;;34.45;13.50;;;;;;;;;;5047363;28;20052;-57
2021/12/15 12:30:20;;;;;;;36.40;13.52;;;;;;;;;;5054616;28;20052;-57
2021/12/15 12:32:46;;;;;;;31.60;13.05;;;;;;;;;;5043614;28;20056;-57
2021/12/15 12:35:16;;;;;;;33.03;13.32;;;;;;;;;;5047891;28;20391;-57
2021/12/15 12:37:43;;;;;;;30.63;12.15;;;;;;;;;;5043873;28;20186;-57
2021/12/15 12:40:20;;;;;;;29.27;12.68;;;;;;;;;;5036504;28;20052;-58
2021/12/15 12:42:48;;;;;;;31.65;12.13;;;;;;;;;;5043764;28;20064;-58
2021/12/15 12:45:18;;;;;;;27.85;11.43;;;;;;;;;;5047958;28;20080;-58
2021/12/15 12:48:00;;;;;;;27.95;12.23;;;;;;;;;;5043907;28;20060;-57
2021/12/15 12:51:04;;;;;;;29.17;10.65;;;;;;;;;;5047285;28;20053;-57
2021/12/15 12:59:29;;;;;;;25.92;10.05;;;;;;;;;;5043667;28;20060;-57
2021/12/15 13:01:58;;;;;;;22.73;9.48;;;;;;;;;;5047057;28;20056;-57
2021/12/15 13:04:36;;;;;;;22.60;10.75;;;;;;;;;;5043917;28;20052;-57
2021/12/15 13:07:02;;;;;;;22.58;10.57;;;;;;;;;;5048306;28;20483;-57
2021/12/15 13:09:42;;;;;;;25.55;11.13;;;;;;;;;;5042714;28;20057;-56
2021/12/15 13:12:17;;;;;;;24.70;10.23;;;;;;;;;;5047167;28;20053;-57
2021/12/15 13:14:44;;;;;;;22.42;9.68;;;;;;;;;;5043445;28;20710;-57
2021/12/15 13:17:19;;;;;;;22.35;10.20;;;;;;;;;;5047780;28;20073;-57
2021/12/15 13:19:46;;;;;;;28.10;10.63;;;;;;;;;;5043808;28;20053;-57
2021/12/15 13:22:20;;;;;;;25.63;11.27;;;;;;;;;;5047432;28;20140;-57
2021/12/15 13:30:27;;;;;;;22.58;10.52;;;;;;;;;;5043451;28;20044;-58
2021/12/15 13:33:04;;;;;;;22.55;10.45;;;;;;;;;;5047811;28;20106;-58
2021/12/15 13:35:36;;;;;;;22.15;10.25;;;;;;;;;;5044507;28;20079;-57
2021/12/15 13:38:03;;;;;;;22.30;9.60;;;;;;;;;;5045609;28;20132;-57
2021/12/15 13:40:49;;;;;;;21.95;9.93;;;;;;;;;;5040873;28;20057;-57
2021/12/15 13:43:36;;;;;;;28.13;10.20;;;;;;;;;;5047498;28;20502;-56
2021/12/15 13:46:04;;;;;;;23.83;9.15;;;;;;;;;;5077261;28;20558;-58
2021/12/15 13:48:56;;;;;;;23.67;9.73;;;;;;;;;;5046811;28;20057;-57
2021/12/15 13:51:37;;;;;;;17.40;8.43;;;;;;;;;;5042992;28;20057;-57
2021/12/15 13:54:03;;;;;;;17.85;8.27;;;;;;;;;;5061247;28;20061;-58
2021/12/15 13:56:45;;;;;;;22.02;9.35;;;;;;;;;;5042440;28;20076;-57
2021/12/15 13:59:26;;;;;;;21.25;8.20;;;;;;;;;;5046426;28;20087;-57
2021/12/15 14:02:09;;;;;;;19.00;8.70;;;;;;;;;;5045387;28;20107;-58
2021/12/15 14:04:45;;;;;;;19.23;8.85;;;;;;;;;;5043111;28;20065;-57
2021/12/15 14:07:30;;;;;;;19.60;9.27;;;;;;;;;;5039364;28;20495;-57
2021/12/15 14:09:58;;;;;;;21.05;8.43;;;;;;;;;;5041644;28;20117;-57
2021/12/15 14:12:39;;;;;;;22.00;9.23;;;;;;;;;;5044701;28;20052;-57
2021/12/15 14:15:06;;;;;;;17.10;8.32;;;;;;;;;;5040959;28;20053;-57
2021/12/15 14:17:32;;;;;;;19.65;8.52;;;;;;;;;;5045715;28;20052;-57
2021/12/15 14:20:00;;;;;;;17.88;8.32;;;;;;;;;;5045839;28;20114;-56
2021/12/15 14:22:27;;;;;;;19.40;7.97;;;;;;;;;;5041617;28;20068;-57
2021/12/15 14:24:55;;;;;;;21.00;9.20;;;;;;;;;;5045705;28;20067;-57
2021/12/15 14:27:22;;;;;;;21.90;8.57;;;;;;;;;;5039184;28;20048;-57
2021/12/15 14:29:50;;;;;;;18.60;7.60;;;;;;;;;;5045342;28;20494;-57
2021/12/15 14:32:17;;;;;;;25.17;8.70;;;;;;;;;;5042001;28;20045;-56
2021/12/15 14:34:44;;;;;;;16.95;7.90;;;;;;;;;;5046408;28;20061;-58
2021/12/15 14:37:13;;;;;;;22.40;8.73;;;;;;;;;;5040477;28;20059;-57
2021/12/15 14:39:41;;;;;;;18.80;8.13;;;;;;;;;;5044992;28;20068;-57
2021/12/15 14:42:09;;;;;;;18.52;8.30;;;;;;;;;;5041075;28;20110;-56
2021/12/15 14:44:38;;;;;;;21.93;8.70;;;;;;;;;;5045028;28;20048;-57
2021/12/15 14:47:07;;;;;;;16.35;7.60;;;;;;;;;;5041924;28;20315;-57
2021/12/15 14:49:34;;;;;;;19.40;8.90;;;;;;;;;;5045554;28;20139;-57
2021/12/15 14:52:03;;;;;;;19.10;7.22;;;;;;;;;;5042257;28;20081;-57
2021/12/15 14:54:32;;;;;;;18.00;8.40;;;;;;;;;;5045862;28;20053;-57
2021/12/15 14:56:58;;;;;;;;;;;;;;;;;;5042322;28;20060;-57
2021/12/15 14:59:26;;;;;;;17.63;7.07;;;;;;;;;;5045792;28;20019;-58
2021/12/15 15:01:54;;;;;;;18.73;8.00;;;;;;;;;;5033751;28;20060;-58
2021/12/15 15:04:25;;;;;;;22.27;8.97;;;;;;;;;;5019217;28;20053;-58
2021/12/15 15:06:53;;;;;;;22.50;8.20;;;;;;;;;;5060124;28;20315;-57
2021/12/15 15:09:21;;;;;;;15.65;7.28;;;;;;;;;;5035274;28;20467;-58
2021/12/15 15:11:51;;;;;;;19.17;7.93;;;;;;;;;;5059628;28;20118;-57
2021/12/15 15:14:24;;;;;;;16.55;7.57;;;;;;;;;;5033021;28;20053;-58
2021/12/15 15:16:51;;;;;;;14.20;7.28;;;;;;;;;;5044586;28;20157;-58
2021/12/15 15:19:19;;;;;;;16.73;8.30;;;;;;;;;;5068118;28;20453;-58
2021/12/15 15:21:46;;;;;;;16.02;7.22;;;;;;;;;;5043511;28;20119;-58
2021/12/15 15:24:23;;;;;;;21.33;9.30;;;;;;;;;;5037109;28;20110;-58
2021/12/15 15:26:55;;;;;;;21.67;8.05;;;;;;;;;;5044049;28;20052;-58
2021/12/15 15:29:28;;;;;;;27.42;10.68;;;;;;;;;;5059243;28;20130;-58
2021/12/15 15:31:55;;;;;;;16.00;7.82;;;;;;;;;;5038758;28;20076;-58
2021/12/15 15:34:25;;;;;;;22.27;9.15;;;;;;;;;;5045354;28;20052;-58